createdAt,value
2019-04-22T00:01:21.552Z,46.30
2019-04-22T00:03:55.321Z,46.30
2019-04-22T00:06:51.747Z,46.20
2019-04-22T00:09:28.508Z,46.20
2019-04-22T00:12:11.220Z,46.30
2019-04-22T00:14:28.273Z,46.30
2019-04-22T00:17:16.674Z,46.60
2019-04-22T00:19:55.520Z,46.90
2019-04-22T00:22:22.292Z,47.00
2019-04-22T00:25:03.297Z,47.20
2019-04-22T00:27:35.621Z,47.50
2019-04-22T00:32:44.969Z,47.60
2019-04-22T00:35:19.548Z,47.60
2019-04-22T00:37:58.150Z,47.50
2019-04-22T00:40:33.925Z,47.50
2019-04-22T00:43:06.725Z,47.50
2019-04-22T00:48:21.102Z,47.50
2019-04-22T00:53:33.419Z,47.50
2019-04-22T00:58:41.157Z,47.60
2019-04-22T01:01:19.205Z,47.50
2019-04-22T01:03:59.173Z,47.50
2019-04-22T01:06:27.340Z,47.60
2019-04-22T01:09:08.739Z,47.70
2019-04-22T01:14:19.025Z,47.90
2019-04-22T01:16:50.435Z,48.10
2019-04-22T01:19:29.545Z,48.00
2019-04-22T01:21:58.440Z,48.10
2019-04-22T01:24:32.729Z,48.00
2019-04-22T01:27:01.902Z,48.00
2019-04-22T01:29:42.420Z,48.00
2019-04-22T01:32:11.828Z,48.00
2019-04-22T01:34:52.593Z,47.90
2019-04-22T01:37:28.739Z,47.90
2019-04-22T01:40:21.728Z,47.90
2019-04-22T01:42:55.926Z,48.10
2019-04-22T01:45:26.149Z,48.20
2019-04-22T01:48:00.493Z,48.30
2019-04-22T01:50:33.356Z,48.50
2019-04-22T01:53:11.663Z,48.70
2019-04-22T01:55:46.816Z,48.80
2019-04-22T01:58:21.489Z,48.90
2019-04-22T02:01:13.745Z,48.90
2019-04-22T02:03:36.330Z,48.90
2019-04-22T02:06:09.013Z,48.90
2019-04-22T02:08:45.126Z,48.90
2019-04-22T02:13:56.585Z,49.20
2019-04-22T02:16:27.597Z,49.20
2019-04-22T02:19:11.697Z,49.40
2019-04-22T02:21:35.445Z,49.60
2019-04-22T02:24:09.073Z,49.70
2019-04-22T02:27:08.934Z,49.80
2019-04-22T02:29:26.368Z,49.90
2019-04-22T02:34:50.757Z,50.00
2019-04-22T02:37:12.957Z,50.10
2019-04-22T02:39:50.830Z,50.60
2019-04-22T02:42:16.517Z,50.10
2019-04-22T02:44:55.934Z,50.30
2019-04-22T02:47:31.587Z,50.50
2019-04-22T02:50:07.396Z,50.50
2019-04-22T02:55:30.322Z,50.70
2019-04-22T02:57:55.142Z,50.90
2019-04-22T03:00:37.266Z,50.90
2019-04-22T03:03:33.192Z,50.80
2019-04-22T03:05:53.326Z,50.80
2019-04-22T03:13:40.496Z,51.10
2019-04-22T03:21:13.987Z,51.80
2019-04-22T03:24:12.132Z,51.10
2019-04-22T03:26:31.901Z,51.30
2019-04-22T03:39:57.819Z,51.30
2019-04-22T03:44:51.773Z,51.70
2019-04-22T03:50:04.098Z,51.80
2019-04-22T03:52:27.750Z,51.70
2019-04-22T03:55:09.240Z,51.80
2019-04-22T04:00:30.327Z,51.90
2019-04-22T04:10:40.239Z,52.20
2019-04-22T04:15:52.538Z,52.30
2019-04-22T04:18:30.678Z,52.30
2019-04-22T04:21:24.052Z,52.30
2019-04-22T04:23:50.469Z,52.30
2019-04-22T04:26:16.968Z,52.40
2019-04-22T04:34:04.114Z,52.40
2019-04-22T04:36:34.148Z,52.50
2019-04-22T04:39:10.342Z,52.60
2019-04-22T04:44:24.647Z,52.70
2019-04-22T04:49:35.801Z,52.80
2019-04-22T04:52:06.650Z,53.00
2019-04-22T04:57:31.989Z,53.20
2019-04-22T05:00:32.377Z,53.20
2019-04-22T05:02:30.837Z,53.20
2019-04-22T05:15:57.680Z,53.40
2019-04-22T05:18:04.439Z,53.40
2019-04-22T05:23:02.225Z,53.30
2019-04-22T05:25:31.682Z,53.30
2019-04-22T05:28:13.501Z,53.20
2019-04-22T05:30:49.283Z,53.10
2019-04-22T05:33:21.717Z,53.00
2019-04-22T05:36:06.067Z,53.00
2019-04-22T05:38:40.214Z,52.90
2019-04-22T05:41:10.162Z,52.90
2019-04-22T05:43:47.413Z,52.70
2019-04-22T05:46:20.518Z,52.80
2019-04-22T05:49:01.065Z,52.80
2019-04-22T05:51:33.463Z,52.80
2019-04-22T05:54:13.136Z,53.00
2019-04-22T05:56:37.578Z,52.90
2019-04-22T06:02:20.373Z,52.90
2019-04-22T06:04:27.484Z,52.80
2019-04-22T06:07:04.907Z,52.80
2019-04-22T06:09:32.446Z,52.70
2019-04-22T06:12:05.036Z,52.60
2019-04-22T06:14:47.409Z,52.50
2019-04-22T06:17:31.706Z,52.40
2019-04-22T06:20:02.290Z,52.30
2019-04-22T06:22:43.311Z,52.20
2019-04-22T06:25:23.241Z,52.20
2019-04-22T06:27:52.421Z,52.10
2019-04-22T06:30:32.918Z,51.90
2019-04-22T06:33:08.466Z,51.70
2019-04-22T06:35:39.026Z,51.40
2019-04-22T06:38:26.802Z,51.20
2019-04-22T06:40:52.108Z,51.00
2019-04-22T06:43:25.219Z,50.70
2019-04-22T06:45:51.377Z,50.40
2019-04-22T06:48:33.260Z,50.20
2019-04-22T06:51:07.703Z,49.90
2019-04-22T06:53:41.155Z,49.60
2019-04-22T06:56:17.282Z,49.40
2019-04-22T06:58:54.571Z,49.30
2019-04-22T07:01:33.843Z,49.00
2019-04-22T07:03:59.308Z,48.70
2019-04-22T07:06:44.795Z,48.40
2019-04-22T07:11:43.202Z,47.60
2019-04-22T07:14:18.154Z,47.20
2019-04-22T07:16:58.829Z,46.90
2019-04-22T07:19:33.659Z,46.40
2019-04-22T07:22:11.090Z,46.00
2019-04-22T07:24:46.148Z,45.70
2019-04-22T07:27:15.918Z,45.30
2019-04-22T07:29:55.882Z,45.10
2019-04-22T07:35:08.740Z,44.50
2019-04-22T07:37:42.010Z,44.30
2019-04-22T07:40:11.854Z,44.00
2019-04-22T07:42:48.135Z,43.80
2019-04-22T07:45:25.447Z,43.50
2019-04-22T07:48:03.052Z,43.20
2019-04-22T07:53:13.267Z,42.60
2019-04-22T07:55:45.696Z,42.30
2019-04-22T08:00:55.253Z,41.60
2019-04-22T08:03:37.552Z,41.20
2019-04-22T08:08:37.488Z,40.50
2019-04-22T08:11:31.059Z,40.20
2019-04-22T08:13:46.603Z,40.40
2019-04-22T08:16:23.565Z,40.40
2019-04-22T08:19:02.971Z,39.50
2019-04-22T08:21:42.615Z,39.20
2019-04-22T08:24:28.841Z,38.90
2019-04-22T08:26:51.317Z,38.60
2019-04-22T08:29:26.534Z,38.40
2019-04-22T08:32:01.092Z,38.20
2019-04-22T08:34:29.577Z,37.90
2019-04-22T08:39:43.211Z,37.70
2019-04-22T08:42:27.150Z,37.80
2019-04-22T08:45:07.408Z,37.70
2019-04-22T08:47:31.056Z,37.40
2019-04-22T08:50:07.741Z,37.10
2019-04-22T08:52:41.565Z,36.80
2019-04-22T08:55:17.452Z,36.40
2019-04-22T08:58:12.965Z,36.00
2019-04-22T09:00:32.257Z,35.70
2019-04-22T09:08:14.198Z,35.10
2019-04-22T09:13:22.191Z,34.40
2019-04-22T09:15:59.040Z,34.20
2019-04-22T09:18:35.109Z,33.80
2019-04-22T09:21:14.679Z,33.30
2019-04-22T09:23:47.660Z,32.70
2019-04-22T09:26:16.650Z,32.30
2019-04-22T09:31:23.808Z,31.60
2019-04-22T09:33:59.572Z,31.40
2019-04-22T09:39:19.330Z,30.50
2019-04-22T09:44:24.663Z,30.10
2019-04-22T09:47:05.226Z,29.70
2019-04-22T09:49:39.606Z,29.40
2019-04-22T09:52:10.494Z,29.40
2019-04-22T09:57:21.216Z,29.10
2019-04-22T09:59:57.507Z,28.90
2019-04-22T10:05:09.139Z,28.50
2019-04-22T10:07:42.633Z,28.40
2019-04-22T10:10:14.362Z,28.10
2019-04-22T10:12:46.759Z,27.70
2019-04-22T10:15:25.784Z,27.50
2019-04-22T10:18:04.884Z,27.30
2019-04-22T10:20:38.196Z,27.10
2019-04-22T10:23:14.038Z,27.10
2019-04-22T10:25:45.964Z,26.90
2019-04-22T10:28:23.606Z,26.90
2019-04-22T10:30:52.144Z,26.90
2019-04-22T10:33:26.880Z,26.90
2019-04-22T10:35:43.486Z,26.60
2019-04-22T10:38:18.480Z,26.50
2019-04-22T10:40:52.596Z,26.70
2019-04-22T10:43:27.336Z,27.10
2019-04-22T10:46:02.017Z,27.20
2019-04-22T10:48:36.588Z,27.10
2019-04-22T10:51:10.716Z,27.10
2019-04-22T10:53:44.309Z,27.30
2019-04-22T10:56:18.859Z,27.40
2019-04-22T10:58:52.994Z,27.40
2019-04-22T11:01:27.611Z,27.60
2019-04-22T11:04:01.599Z,27.50
2019-04-22T11:06:40.912Z,27.30
2019-04-22T11:09:10.997Z,27.10
2019-04-22T11:11:54.233Z,27.10
2019-04-22T11:14:21.091Z,26.90
2019-04-22T11:16:55.377Z,26.60
2019-04-22T11:19:29.929Z,26.30
2019-04-22T11:22:12.869Z,26.20
2019-04-22T11:24:38.919Z,26.30
2019-04-22T11:27:12.708Z,26.40
2019-04-22T11:29:47.641Z,26.50
2019-04-22T11:32:22.388Z,26.20
2019-04-22T11:34:56.169Z,26.00
2019-04-22T11:37:30.384Z,25.80
2019-04-22T11:40:16.556Z,26.00
2019-04-22T11:42:41.414Z,25.20
2019-04-22T11:45:15.635Z,25.30
2019-04-22T11:47:49.209Z,25.40
2019-04-22T11:50:25.973Z,25.30
2019-04-22T11:53:00.768Z,25.30
2019-04-22T11:55:34.938Z,25.20
2019-04-22T11:58:08.782Z,25.10
2019-04-22T12:00:43.220Z,25.00
2019-04-22T12:03:17.036Z,24.80
2019-04-22T12:05:50.458Z,24.80
2019-04-22T12:08:25.037Z,24.60
2019-04-22T12:11:01.912Z,24.40
2019-04-22T12:13:33.929Z,24.40
2019-04-22T12:16:07.615Z,24.30
2019-04-22T12:18:41.036Z,24.30
2019-04-22T12:21:15.265Z,24.30
2019-04-22T12:23:48.866Z,24.20
2019-04-22T12:26:24.692Z,24.20
2019-04-22T12:28:57.504Z,24.30
2019-04-22T12:31:31.559Z,24.30
2019-04-22T12:34:06.004Z,24.40
2019-04-22T12:36:40.381Z,24.80
2019-04-22T12:39:15.543Z,24.20
2019-04-22T12:41:49.942Z,24.00
2019-04-22T12:44:24.457Z,24.10
2019-04-22T12:47:00.271Z,24.00
2019-04-22T12:49:35.655Z,24.00
2019-04-22T12:52:10.445Z,24.00
2019-04-22T12:54:44.626Z,24.10
2019-04-22T12:57:18.806Z,24.10
2019-04-22T12:59:53.395Z,24.20
2019-04-22T13:02:27.087Z,24.20
2019-04-22T13:05:00.709Z,24.30
2019-04-22T13:07:35.633Z,24.40
2019-04-22T13:10:11.144Z,24.60
2019-04-22T13:12:44.846Z,24.50
2019-04-22T13:15:20.081Z,24.30
2019-04-22T13:18:04.200Z,24.00
2019-04-22T13:20:30.286Z,23.80
2019-04-22T13:23:04.139Z,23.60
2019-04-22T13:25:38.906Z,23.30
2019-04-22T13:28:13.295Z,23.00
2019-04-22T13:30:48.548Z,22.90
2019-04-22T13:33:23.206Z,23.00
2019-04-22T13:35:57.534Z,23.20
2019-04-22T13:38:31.234Z,23.40
2019-04-22T13:41:16.414Z,23.60
2019-04-22T13:43:41.030Z,23.70
2019-04-22T13:46:16.631Z,23.70
2019-04-22T13:49:17.859Z,23.60
2019-04-22T13:51:54.332Z,23.50
2019-04-22T13:56:54.878Z,23.60
2019-04-22T13:59:23.123Z,23.50
2019-04-22T14:01:54.642Z,23.30
2019-04-22T14:04:32.800Z,23.10
2019-04-22T14:07:07.128Z,22.60
2019-04-22T14:09:42.231Z,21.90
2019-04-22T14:12:17.898Z,21.20
2019-04-22T14:14:52.617Z,20.50
2019-04-22T14:17:27.074Z,20.20
2019-04-22T14:20:00.761Z,20.10
2019-04-22T14:22:34.672Z,20.00
2019-04-22T14:25:10.566Z,19.90
2019-04-22T14:27:51.401Z,19.60
2019-04-22T14:30:20.884Z,19.00
2019-04-22T14:32:55.927Z,18.30
2019-04-22T14:35:29.471Z,18.00
2019-04-22T14:38:04.243Z,18.20
2019-04-22T14:40:38.645Z,18.40
2019-04-22T14:43:40.411Z,18.30
2019-04-22T14:46:17.787Z,18.20
2019-04-22T14:51:16.125Z,18.00
2019-04-22T14:53:50.305Z,18.00
2019-04-22T14:56:08.811Z,18.20
2019-04-22T14:58:42.753Z,18.50
2019-04-22T15:01:18.972Z,18.70
2019-04-22T15:03:52.627Z,18.60
2019-04-22T15:06:26.698Z,18.50
2019-04-22T15:09:01.863Z,18.70
2019-04-22T15:11:48.611Z,18.80
2019-04-22T15:14:11.639Z,18.60
2019-04-22T15:16:57.076Z,18.70
2019-04-22T15:19:33.773Z,19.00
2019-04-22T15:22:08.468Z,19.20
2019-04-22T15:24:42.611Z,19.50
2019-04-22T15:27:16.359Z,19.80
2019-04-22T15:29:51.619Z,19.80
2019-04-22T15:32:25.383Z,19.80
2019-04-22T15:34:59.635Z,20.00
2019-04-22T15:37:33.396Z,20.20
2019-04-22T15:40:11.134Z,20.30
2019-04-22T15:42:45.201Z,20.40
2019-04-22T15:45:20.529Z,20.30
2019-04-22T15:47:55.953Z,20.30
2019-04-22T15:50:30.904Z,20.20
2019-04-22T15:53:04.683Z,20.00
2019-04-22T15:55:38.929Z,20.00
2019-04-22T15:58:12.683Z,19.90
2019-04-22T16:00:59.313Z,20.00
2019-04-22T16:03:22.788Z,20.00
2019-04-22T16:05:57.621Z,20.10
2019-04-22T16:08:34.219Z,20.20
2019-04-22T16:11:06.870Z,19.90
2019-04-22T16:13:40.312Z,19.70
2019-04-22T16:16:14.598Z,19.60
2019-04-22T16:18:48.578Z,19.80
2019-04-22T16:21:33.781Z,20.10
2019-04-22T16:24:02.554Z,20.30
2019-04-22T16:26:40.510Z,20.30
2019-04-22T16:29:16.898Z,20.50
2019-04-22T16:31:51.482Z,20.70
2019-04-22T16:34:25.139Z,20.90
2019-04-22T16:36:58.680Z,21.00
2019-04-22T16:39:32.945Z,21.10
2019-04-22T16:42:06.800Z,21.10
2019-04-22T16:44:40.736Z,21.10
2019-04-22T16:47:15.517Z,21.10
2019-04-22T16:49:49.748Z,21.30
2019-04-22T16:52:23.840Z,21.50
2019-04-22T16:54:58.949Z,21.50
2019-04-22T16:57:33.717Z,21.60
2019-04-22T17:00:11.188Z,21.60
2019-04-22T17:02:58.663Z,21.60
2019-04-22T17:05:49.863Z,21.70
2019-04-22T17:08:24.536Z,21.80
2019-04-22T17:10:59.760Z,22.00
2019-04-22T17:13:34.671Z,22.10
2019-04-22T17:16:09.824Z,22.20
2019-04-22T17:18:43.792Z,22.30
2019-04-22T17:21:17.636Z,22.40
2019-04-22T17:23:51.793Z,22.50
2019-04-22T17:26:26.442Z,22.60
2019-04-22T17:29:04.066Z,22.70
2019-04-22T17:31:36.529Z,22.90
2019-04-22T17:34:11.520Z,23.00
2019-04-22T17:36:46.224Z,23.10
2019-04-22T17:39:31.491Z,23.20
2019-04-22T17:42:15.727Z,23.20
2019-04-22T17:44:56.004Z,23.30
2019-04-22T17:47:32.979Z,23.50
2019-04-22T17:50:18.292Z,23.50
2019-04-22T17:53:03.584Z,23.60
2019-04-22T17:55:35.343Z,23.70
2019-04-22T17:58:09.679Z,23.80
2019-04-22T18:00:38.206Z,23.80
2019-04-22T18:03:08.742Z,24.00
2019-04-22T18:05:40.646Z,24.20
2019-04-22T18:08:25.214Z,24.30
2019-04-22T18:10:59.798Z,24.50
2019-04-22T18:13:41.277Z,24.60
2019-04-22T18:16:15.090Z,24.70
2019-04-22T18:18:47.319Z,24.90
2019-04-22T18:21:17.314Z,25.00
2019-04-22T18:23:51.975Z,25.20
2019-04-22T18:26:32.123Z,25.20
2019-04-22T18:29:07.448Z,25.40
2019-04-22T18:31:38.535Z,25.50
2019-04-22T18:34:11.489Z,25.60
2019-04-22T18:36:45.652Z,25.70
2019-04-22T18:39:31.627Z,26.00
2019-04-22T18:42:04.863Z,26.10
2019-04-22T18:44:39.976Z,26.20
2019-04-22T18:47:13.066Z,26.30
2019-04-22T18:49:47.652Z,26.30
2019-04-22T18:52:46.998Z,26.30
2019-04-22T18:55:26.731Z,26.40
2019-04-22T18:58:06.814Z,26.30
2019-04-22T19:00:31.631Z,26.20
2019-04-22T19:03:15.693Z,26.30
2019-04-22T19:06:09.530Z,26.40
2019-04-22T19:08:36.972Z,26.50
2019-04-22T19:11:27.153Z,26.70
2019-04-22T19:14:05.962Z,27.10
2019-04-22T19:16:39.891Z,26.90
2019-04-22T19:19:20.696Z,26.90
2019-04-22T19:21:40.631Z,27.10
2019-04-22T19:24:09.502Z,27.40
2019-04-22T19:29:25.952Z,28.70
2019-04-22T19:31:56.847Z,29.30
2019-04-22T19:34:31.694Z,29.80
2019-04-22T19:37:08.324Z,29.80
2019-04-22T19:39:50.124Z,29.70
2019-04-22T19:42:25.127Z,30.00
2019-04-22T19:44:55.022Z,30.00
2019-04-22T19:47:30.309Z,29.90
2019-04-22T19:52:39.838Z,30.40
2019-04-22T19:55:12.603Z,31.00
2019-04-22T19:57:48.936Z,31.40
2019-04-22T20:00:22.898Z,31.60
2019-04-22T20:03:12.919Z,31.80
2019-04-22T20:05:45.179Z,31.60
2019-04-22T20:08:21.338Z,31.60
2019-04-22T20:10:52.606Z,31.50
2019-04-22T20:13:30.894Z,31.80
2019-04-22T20:15:55.266Z,32.10
2019-04-22T20:18:50.554Z,32.30
2019-04-22T20:21:21.115Z,32.70
2019-04-22T20:23:39.687Z,32.50
2019-04-22T20:26:17.993Z,32.50
2019-04-22T20:28:59.081Z,32.60
2019-04-22T20:31:31.848Z,32.40
2019-04-22T20:34:14.753Z,32.10
2019-04-22T20:37:00.691Z,31.90
2019-04-22T20:39:20.574Z,31.90
2019-04-22T20:42:03.287Z,31.90
2019-04-22T20:44:33.495Z,31.90
2019-04-22T20:47:00.045Z,31.80
2019-04-22T20:49:41.543Z,31.80
2019-04-22T20:52:24.059Z,31.80
2019-04-22T20:54:50.981Z,31.70
2019-04-22T20:57:24.047Z,31.60
2019-04-22T20:59:58.501Z,31.60
2019-04-22T21:02:31.293Z,31.30
2019-04-22T21:04:58.819Z,31.60
2019-04-22T21:07:38.508Z,30.90
2019-04-22T21:10:18.501Z,30.70
2019-04-22T21:12:50.712Z,30.60
2019-04-22T21:15:36.851Z,30.20
2019-04-22T21:18:08.386Z,30.00
2019-04-22T21:20:48.091Z,29.70
2019-04-22T21:23:17.777Z,29.30
2019-04-22T21:25:47.111Z,29.10
2019-04-22T21:28:28.886Z,28.90
2019-04-22T21:31:01.089Z,28.80
2019-04-22T21:33:41.906Z,28.70
2019-04-22T21:36:22.150Z,28.70
2019-04-22T21:38:48.436Z,28.80
2019-04-22T21:41:20.483Z,29.00
2019-04-22T21:43:58.020Z,29.10
2019-04-22T21:46:33.845Z,29.20
2019-04-22T21:49:12.807Z,29.20
2019-04-22T21:51:49.782Z,29.30
2019-04-22T21:54:25.575Z,29.30
2019-04-22T21:57:16.993Z,29.40
2019-04-22T21:59:34.619Z,29.40
2019-04-22T22:02:22.162Z,29.50
2019-04-22T22:04:47.382Z,29.60
2019-04-22T22:07:13.243Z,29.80
2019-04-22T22:10:02.176Z,29.90
2019-04-22T22:12:36.187Z,29.90
2019-04-22T22:15:16.609Z,30.00
2019-04-22T22:17:42.937Z,30.10
2019-04-22T22:20:17.299Z,30.10
2019-04-22T22:22:59.999Z,30.30
2019-04-22T22:25:31.611Z,30.40
2019-04-22T22:28:08.782Z,30.50
2019-04-22T22:31:06.644Z,30.70
2019-04-22T22:33:18.767Z,30.80
2019-04-22T22:35:51.909Z,30.90
2019-04-22T22:38:27.204Z,31.00
2019-04-22T22:40:43.933Z,31.10
2019-04-22T22:43:26.656Z,31.30
2019-04-22T22:46:09.500Z,31.40
2019-04-22T22:48:51.548Z,31.70
2019-04-22T22:51:34.340Z,31.80
2019-04-22T22:54:00.762Z,32.00
2019-04-22T22:56:42.553Z,32.10
2019-04-22T22:59:08.174Z,32.30
2019-04-22T23:01:48.463Z,32.50
2019-04-22T23:04:23.130Z,32.80
2019-04-22T23:06:55.827Z,33.00
2019-04-22T23:09:30.602Z,33.20
2019-04-22T23:12:20.307Z,33.50
2019-04-22T23:14:44.228Z,33.60
2019-04-22T23:17:03.933Z,33.80
2019-04-22T23:19:32.605Z,33.90
2019-04-22T23:22:20.720Z,34.00
2019-04-22T23:25:14.413Z,34.90
2019-04-22T23:27:42.099Z,34.50
2019-04-22T23:30:19.681Z,34.60
2019-04-22T23:33:03.406Z,34.60
2019-04-22T23:35:46.666Z,34.80
2019-04-22T23:38:20.683Z,35.00
2019-04-22T23:41:03.409Z,35.10
2019-04-22T23:43:44.985Z,35.20
2019-04-22T23:46:11.521Z,35.40
2019-04-22T23:48:39.096Z,35.50
2019-04-22T23:51:22.893Z,35.50
2019-04-22T23:54:10.726Z,35.60
2019-04-22T23:56:29.382Z,36.00
2019-04-22T23:59:13.403Z,36.50
